createdAt,value
2022-10-28T00:01:14.801Z,10.70
2022-10-28T00:03:43.007Z,10.70
2022-10-28T00:06:11.220Z,10.60
2022-10-28T00:08:37.880Z,10.60
2022-10-28T00:11:07.524Z,10.70
2022-10-28T00:13:34.249Z,10.50
2022-10-28T00:16:04.967Z,10.50
2022-10-28T00:18:31.686Z,10.50
2022-10-28T00:21:02.083Z,10.40
2022-10-28T00:23:28.755Z,10.40
2022-10-28T00:25:55.608Z,10.70
2022-10-28T00:28:22.266Z,10.80
2022-10-28T00:30:48.855Z,10.30
2022-10-28T00:33:15.421Z,10.30
2022-10-28T00:35:41.983Z,10.40
2022-10-28T00:38:08.561Z,10.30
2022-10-28T00:40:35.397Z,10.30
2022-10-28T00:43:01.972Z,10.30
2022-10-28T00:45:29.139Z,10.30
2022-10-28T00:47:57.163Z,10.30
2022-10-28T00:50:27.079Z,10.60
2022-10-28T00:52:56.517Z,10.20
2022-10-28T00:55:23.599Z,10.20
2022-10-28T00:57:50.766Z,10.20
2022-10-28T01:00:17.559Z,11.30
2022-10-28T01:02:46.303Z,10.20
2022-10-28T01:05:14.623Z,10.20
2022-10-28T01:07:41.438Z,11.50
2022-10-28T01:10:08.890Z,10.30
2022-10-28T01:12:40.479Z,10.30
2022-10-28T01:15:12.754Z,10.30
2022-10-28T01:17:57.554Z,10.30
2022-10-28T01:20:27.106Z,10.30
2022-10-28T01:22:53.849Z,10.40
2022-10-28T01:25:40.429Z,10.40
2022-10-28T01:28:39.167Z,10.40
2022-10-28T01:31:28.754Z,10.40
2022-10-28T01:34:01.379Z,10.50
2022-10-28T01:36:31.032Z,10.50
2022-10-28T01:39:01.407Z,10.50
2022-10-28T01:41:27.976Z,10.40
2022-10-28T01:43:57.649Z,10.80
2022-10-28T01:46:53.404Z,10.60
2022-10-28T01:49:23.124Z,10.60
2022-10-28T01:51:58.326Z,10.60
2022-10-28T01:54:26.219Z,10.60
2022-10-28T01:56:53.305Z,10.60
2022-10-28T01:59:22.312Z,10.60
2022-10-28T02:01:49.042Z,10.70
2022-10-28T02:04:15.883Z,10.60
2022-10-28T02:06:44.025Z,10.60
2022-10-28T02:09:18.885Z,10.70
2022-10-28T02:12:00.558Z,10.60
2022-10-28T02:14:33.330Z,10.60
2022-10-28T02:17:18.629Z,10.60
2022-10-28T02:20:02.676Z,10.60
2022-10-28T02:22:46.310Z,10.60
2022-10-28T02:25:12.908Z,10.60
2022-10-28T02:27:50.053Z,10.60
2022-10-28T02:30:16.642Z,10.60
2022-10-28T02:32:50.685Z,10.60
2022-10-28T02:35:19.222Z,10.60
2022-10-28T02:37:46.706Z,10.50
2022-10-28T02:40:14.774Z,10.60
2022-10-28T02:42:44.336Z,10.70
2022-10-28T02:45:16.704Z,10.50
2022-10-28T02:47:46.118Z,10.50
2022-10-28T02:50:16.330Z,10.50
2022-10-28T02:52:45.092Z,10.50
2022-10-28T02:55:11.656Z,10.50
2022-10-28T02:57:41.398Z,10.50
2022-10-28T03:00:10.113Z,10.50
2022-10-28T03:02:37.086Z,10.50
2022-10-28T03:05:05.057Z,10.50
2022-10-28T03:07:31.779Z,10.40
2022-10-28T03:09:58.390Z,10.40
2022-10-28T03:12:24.953Z,10.40
2022-10-28T03:14:51.524Z,10.40
2022-10-28T03:17:18.100Z,10.50
2022-10-28T03:19:44.736Z,10.50
2022-10-28T03:22:11.300Z,10.50
2022-10-28T03:24:37.879Z,10.50
2022-10-28T03:27:04.588Z,10.50
2022-10-28T03:29:31.159Z,10.50
2022-10-28T03:31:57.722Z,10.60
2022-10-28T03:34:24.291Z,10.60
2022-10-28T03:36:50.848Z,10.60
2022-10-28T03:39:17.435Z,10.50
2022-10-28T03:41:44.008Z,10.70
2022-10-28T03:44:10.612Z,10.60
2022-10-28T03:46:37.211Z,11.30
2022-10-28T03:49:04.002Z,10.70
2022-10-28T03:51:30.662Z,10.70
2022-10-28T03:53:57.384Z,10.60
2022-10-28T03:56:23.947Z,10.70
2022-10-28T04:01:22.346Z,10.60
2022-10-28T04:03:49.195Z,10.60
2022-10-28T04:06:16.766Z,10.90
2022-10-28T04:08:43.343Z,10.60
2022-10-28T04:11:10.112Z,10.60
2022-10-28T04:13:36.842Z,10.80
2022-10-28T04:16:03.567Z,10.60
2022-10-28T04:18:30.267Z,10.60
2022-10-28T04:20:56.930Z,10.60
2022-10-28T04:23:23.602Z,10.50
2022-10-28T04:25:54.179Z,10.60
2022-10-28T04:28:22.152Z,10.50
2022-10-28T04:30:48.800Z,10.60
2022-10-28T04:33:15.646Z,10.50
2022-10-28T04:35:45.135Z,11.00
2022-10-28T04:38:12.355Z,10.50
2022-10-28T04:40:38.957Z,10.50
2022-10-28T04:43:08.506Z,10.50
2022-10-28T04:45:36.836Z,8.50
2022-10-28T04:48:03.569Z,10.50
2022-10-28T04:50:30.203Z,10.50
2022-10-28T04:52:56.870Z,10.50
2022-10-28T04:55:23.600Z,10.80
2022-10-28T04:57:53.999Z,10.50
2022-10-28T05:00:20.746Z,10.50
2022-10-28T05:02:47.401Z,10.50
2022-10-28T05:05:14.546Z,10.50
2022-10-28T05:07:41.125Z,10.50
2022-10-28T05:10:07.903Z,10.60
2022-10-28T05:12:34.540Z,10.70
2022-10-28T05:15:01.110Z,10.80
2022-10-28T05:17:27.722Z,10.90
2022-10-28T05:19:54.300Z,10.90
2022-10-28T05:22:20.875Z,10.90
2022-10-28T05:24:47.491Z,10.90
2022-10-28T05:27:15.489Z,11.00
2022-10-28T05:29:42.055Z,11.00
2022-10-28T05:32:08.625Z,11.00
2022-10-28T05:34:36.187Z,11.00
2022-10-28T05:37:02.882Z,11.00
2022-10-28T05:39:29.610Z,11.10
2022-10-28T05:41:56.190Z,11.20
2022-10-28T05:44:22.888Z,11.50
2022-10-28T05:46:49.453Z,11.20
2022-10-28T05:49:20.453Z,11.50
2022-10-28T05:51:47.045Z,11.60
2022-10-28T05:54:13.641Z,11.70
2022-10-28T05:56:40.261Z,12.50
2022-10-28T05:59:06.972Z,11.80
2022-10-28T06:01:35.360Z,11.90
2022-10-28T06:04:02.061Z,11.90
2022-10-28T06:06:28.722Z,12.00
2022-10-28T06:08:55.446Z,12.10
2022-10-28T06:11:20.506Z,12.10
2022-10-28T06:13:47.082Z,12.10
2022-10-28T06:16:13.657Z,12.20
2022-10-28T06:18:40.264Z,12.30
2022-10-28T06:21:06.851Z,12.40
2022-10-28T06:23:33.438Z,13.40
2022-10-28T06:26:00.844Z,12.50
2022-10-28T06:28:27.845Z,12.70
2022-10-28T06:30:59.914Z,12.60
2022-10-28T06:33:26.479Z,12.60
2022-10-28T06:35:56.763Z,13.30
2022-10-28T06:38:26.435Z,12.60
2022-10-28T06:40:53.028Z,12.60
2022-10-28T06:43:19.738Z,12.50
2022-10-28T06:45:46.913Z,12.60
2022-10-28T06:48:15.038Z,12.60
2022-10-28T06:50:41.747Z,12.60
2022-10-28T06:53:09.091Z,12.60
2022-10-28T06:55:35.667Z,12.70
2022-10-28T06:58:02.496Z,12.80
2022-10-28T07:02:56.967Z,13.00
2022-10-28T07:05:24.385Z,13.00
2022-10-28T07:07:51.205Z,13.00
2022-10-28T07:10:18.108Z,13.00
2022-10-28T07:12:44.744Z,13.30
2022-10-28T07:15:11.363Z,13.60
2022-10-28T07:17:37.954Z,13.70
2022-10-28T07:20:04.787Z,14.00
2022-10-28T07:22:31.460Z,14.20
2022-10-28T07:24:58.028Z,14.40
2022-10-28T07:27:24.608Z,14.70
2022-10-28T07:29:51.212Z,14.90
2022-10-28T07:32:17.973Z,15.20
2022-10-28T07:34:44.582Z,15.40
2022-10-28T07:37:12.745Z,15.60
2022-10-28T07:39:39.431Z,15.80
2022-10-28T07:42:06.023Z,16.00
2022-10-28T07:44:32.667Z,16.10
2022-10-28T07:46:59.252Z,16.30
2022-10-28T07:49:25.856Z,16.40
2022-10-28T07:51:52.517Z,16.50
2022-10-28T07:54:19.082Z,16.60
2022-10-28T07:56:45.656Z,16.80
2022-10-28T07:59:12.220Z,17.10
2022-10-28T08:01:38.925Z,17.20
2022-10-28T08:04:05.720Z,17.40
2022-10-28T08:06:33.637Z,17.70
2022-10-28T08:09:00.229Z,17.90
2022-10-28T08:11:26.885Z,18.30
2022-10-28T08:13:53.609Z,18.70
2022-10-28T08:16:20.285Z,19.10
2022-10-28T08:18:46.968Z,19.50
2022-10-28T08:21:14.077Z,19.80
2022-10-28T08:23:41.645Z,20.10
2022-10-28T08:26:08.292Z,20.30
2022-10-28T08:28:34.868Z,20.60
2022-10-28T08:31:09.747Z,20.80
2022-10-28T08:33:38.007Z,20.90
2022-10-28T08:36:05.206Z,21.20
2022-10-28T08:38:31.878Z,21.40
2022-10-28T08:41:03.695Z,21.50
2022-10-28T08:43:46.249Z,21.60
2022-10-28T08:46:31.070Z,21.60
2022-10-28T08:48:57.704Z,21.60
2022-10-28T08:51:24.413Z,21.70
2022-10-28T08:53:55.666Z,21.80
2022-10-28T08:56:22.262Z,21.90
2022-10-28T08:58:49.541Z,22.00
2022-10-28T09:01:35.425Z,22.10
2022-10-28T09:04:05.230Z,22.30
2022-10-28T09:06:31.936Z,22.30
2022-10-28T09:08:59.119Z,22.50
2022-10-28T09:11:36.282Z,22.60
2022-10-28T09:14:21.669Z,22.80
2022-10-28T09:16:57.454Z,23.00
2022-10-28T09:19:27.271Z,23.00
2022-10-28T09:22:02.841Z,23.00
2022-10-28T09:24:43.650Z,23.10
2022-10-28T09:27:22.012Z,23.10
2022-10-28T09:29:54.763Z,23.20
2022-10-28T09:32:25.780Z,23.30
2022-10-28T09:34:56.269Z,23.30
2022-10-28T09:37:27.172Z,23.30
2022-10-28T09:40:12.883Z,23.30
2022-10-28T09:45:16.403Z,22.60
2022-10-28T09:47:45.085Z,22.40
2022-10-28T09:50:14.785Z,22.30
2022-10-28T09:53:01.677Z,22.30
2022-10-28T09:55:29.070Z,22.20
2022-10-28T09:57:56.554Z,22.20
2022-10-28T10:00:23.420Z,22.20
2022-10-28T10:02:52.116Z,22.20
2022-10-28T10:05:18.919Z,22.20
2022-10-28T10:07:56.958Z,22.20
2022-10-28T10:10:28.843Z,22.30
2022-10-28T10:13:00.205Z,22.50
2022-10-28T10:15:30.028Z,22.60
2022-10-28T10:17:58.089Z,22.60
2022-10-28T10:20:24.728Z,22.80
2022-10-28T10:22:51.457Z,22.90
2022-10-28T10:25:18.446Z,23.20
2022-10-28T10:27:51.055Z,23.50
2022-10-28T10:30:25.920Z,23.90
2022-10-28T10:32:52.702Z,24.40
2022-10-28T10:35:23.036Z,24.70
2022-10-28T10:37:49.774Z,25.10
2022-10-28T10:40:16.469Z,25.60
2022-10-28T10:42:51.888Z,26.10
2022-10-28T10:45:29.749Z,26.70
2022-10-28T10:48:15.445Z,27.50
2022-10-28T10:50:43.744Z,28.20
2022-10-28T10:53:20.485Z,28.70
2022-10-28T10:55:52.098Z,29.30
2022-10-28T10:58:20.906Z,29.80
2022-10-28T11:00:48.711Z,30.00
2022-10-28T11:03:21.762Z,30.00
2022-10-28T11:05:55.098Z,30.10
2022-10-28T11:08:36.734Z,30.20
2022-10-28T11:11:22.330Z,30.20
2022-10-28T11:14:01.713Z,30.40
2022-10-28T11:16:28.468Z,30.10
2022-10-28T11:18:55.036Z,30.60
2022-10-28T11:21:37.474Z,31.50
2022-10-28T11:24:10.192Z,32.60
2022-10-28T11:26:57.140Z,32.20
2022-10-28T11:29:24.163Z,31.80
2022-10-28T11:32:00.246Z,31.60
2022-10-28T11:34:45.310Z,31.30
2022-10-28T11:37:16.457Z,31.50
2022-10-28T11:39:46.189Z,32.20
2022-10-28T11:42:39.073Z,33.30
2022-10-28T11:45:13.352Z,32.90
2022-10-28T11:47:45.989Z,31.90
2022-10-28T11:50:27.863Z,30.90
2022-10-28T11:53:20.769Z,29.90
2022-10-28T11:55:54.602Z,29.60
2022-10-28T11:58:41.122Z,29.20
2022-10-28T12:01:34.409Z,29.30
2022-10-28T12:04:07.410Z,29.10
2022-10-28T12:06:52.860Z,29.50
2022-10-28T12:09:22.476Z,30.40
2022-10-28T12:12:02.905Z,31.90
2022-10-28T12:14:49.761Z,33.00
2022-10-28T12:17:16.345Z,34.10
2022-10-28T12:20:05.977Z,35.20
2022-10-28T12:22:56.439Z,35.90
2022-10-28T12:25:28.139Z,36.00
2022-10-28T12:27:57.876Z,36.50
2022-10-28T12:30:29.241Z,36.80
2022-10-28T12:33:17.398Z,37.20
2022-10-28T12:35:47.400Z,37.60
2022-10-28T12:38:19.981Z,37.40
2022-10-28T12:40:51.345Z,37.30
2022-10-28T12:43:27.541Z,36.60
2022-10-28T12:45:55.478Z,35.50
2022-10-28T12:48:24.943Z,34.60
2022-10-28T12:50:54.607Z,34.00
2022-10-28T12:53:33.568Z,33.40
2022-10-28T12:56:01.145Z,32.80
2022-10-28T12:58:33.094Z,32.30
2022-10-28T13:01:07.156Z,31.70
2022-10-28T13:03:33.830Z,31.60
2022-10-28T13:06:20.688Z,31.20
2022-10-28T13:09:06.242Z,30.50
2022-10-28T13:11:35.928Z,30.50
2022-10-28T13:14:21.532Z,30.50
2022-10-28T13:16:48.097Z,30.40
2022-10-28T13:19:24.867Z,30.20
2022-10-28T13:21:54.560Z,29.90
2022-10-28T13:24:44.415Z,29.50
2022-10-28T13:27:12.910Z,29.20
2022-10-28T13:29:41.260Z,28.80
2022-10-28T13:32:27.487Z,28.60
2022-10-28T13:34:54.240Z,28.40
2022-10-28T13:37:21.916Z,28.10
2022-10-28T13:39:48.690Z,27.90
2022-10-28T13:42:16.071Z,27.80
2022-10-28T13:44:53.478Z,27.80
2022-10-28T13:47:25.102Z,27.70
2022-10-28T13:50:10.922Z,27.70
2022-10-28T13:52:38.666Z,27.70
2022-10-28T13:55:14.228Z,27.70
2022-10-28T13:57:43.319Z,27.60
2022-10-28T14:00:13.018Z,27.50
2022-10-28T14:02:40.898Z,27.50
2022-10-28T14:05:09.483Z,27.50
2022-10-28T14:07:38.341Z,27.60
2022-10-28T14:10:20.622Z,27.30
2022-10-28T14:13:09.316Z,27.10
2022-10-28T14:15:37.552Z,26.80
2022-10-28T14:20:39.421Z,26.10
2022-10-28T14:23:21.052Z,26.00
2022-10-28T14:25:50.751Z,26.00
2022-10-28T14:28:32.583Z,26.20
2022-10-28T14:31:20.867Z,26.30
2022-10-28T14:33:53.550Z,26.40
2022-10-28T14:36:20.143Z,26.50
2022-10-28T14:38:58.010Z,26.40
2022-10-28T14:41:33.964Z,26.20
2022-10-28T14:44:00.612Z,26.00
2022-10-28T14:46:27.212Z,25.60
2022-10-28T14:48:55.629Z,25.20
2022-10-28T14:51:36.060Z,25.00
2022-10-28T14:54:06.637Z,24.70
2022-10-28T14:56:33.436Z,24.30
2022-10-28T14:59:18.846Z,24.10
2022-10-28T15:02:10.368Z,23.80
2022-10-28T15:04:38.371Z,23.50
2022-10-28T15:07:05.219Z,23.10
2022-10-28T15:09:32.966Z,23.00
2022-10-28T15:12:07.340Z,22.80
2022-10-28T15:14:36.662Z,22.60
2022-10-28T15:17:11.878Z,22.50
2022-10-28T15:19:38.548Z,22.40
2022-10-28T15:22:25.420Z,22.20
2022-10-28T15:24:53.220Z,22.00
2022-10-28T15:27:20.075Z,21.90
2022-10-28T15:29:48.291Z,21.70
2022-10-28T15:32:24.606Z,21.60
2022-10-28T15:34:51.301Z,21.40
2022-10-28T15:37:19.713Z,21.20
2022-10-28T15:39:46.594Z,21.10
2022-10-28T15:42:36.966Z,20.90
2022-10-28T15:45:03.850Z,20.80
2022-10-28T15:47:31.813Z,20.60
2022-10-28T15:50:25.954Z,20.40
2022-10-28T15:52:54.623Z,20.30
2022-10-28T15:55:35.522Z,19.90
2022-10-28T15:58:13.670Z,19.90
2022-10-28T16:00:58.143Z,19.70
2022-10-28T16:03:25.947Z,19.60
2022-10-28T16:05:53.415Z,19.50
2022-10-28T16:08:24.716Z,19.30
2022-10-28T16:11:04.788Z,19.20
2022-10-28T16:13:41.807Z,19.10
2022-10-28T16:16:10.292Z,19.00
2022-10-28T16:18:44.239Z,18.80
2022-10-28T16:21:16.910Z,18.70
2022-10-28T16:23:43.542Z,18.60
2022-10-28T16:26:13.211Z,18.50
2022-10-28T16:28:45.011Z,18.40
2022-10-28T16:31:15.027Z,18.30
2022-10-28T16:33:41.970Z,18.20
2022-10-28T16:36:08.717Z,18.20
2022-10-28T16:38:35.913Z,18.20
2022-10-28T16:41:03.259Z,18.10
2022-10-28T16:43:30.415Z,18.10
2022-10-28T16:45:59.176Z,18.00
2022-10-28T16:48:27.262Z,18.00
2022-10-28T16:50:55.608Z,17.90
2022-10-28T16:53:22.490Z,17.90
2022-10-28T16:55:49.269Z,17.80
2022-10-28T16:58:15.911Z,17.70
2022-10-28T17:00:42.954Z,17.60
2022-10-28T17:03:14.655Z,17.50
2022-10-28T17:05:41.706Z,17.40
2022-10-28T17:08:09.966Z,17.30
2022-10-28T17:10:37.194Z,17.20
2022-10-28T17:13:03.939Z,17.20
2022-10-28T17:15:30.592Z,17.10
2022-10-28T17:17:57.990Z,16.90
2022-10-28T17:20:24.647Z,16.90
2022-10-28T17:22:51.280Z,16.80
2022-10-28T17:25:18.217Z,16.70
2022-10-28T17:27:48.806Z,16.70
2022-10-28T17:30:18.780Z,16.60
2022-10-28T17:32:48.609Z,16.50
2022-10-28T17:35:15.365Z,16.50
2022-10-28T17:37:41.954Z,16.40
2022-10-28T17:40:08.994Z,16.30
2022-10-28T17:42:35.638Z,16.30
2022-10-28T17:45:02.383Z,16.20
2022-10-28T17:47:29.273Z,16.10
2022-10-28T17:49:55.891Z,16.10
2022-10-28T17:52:22.500Z,16.00
2022-10-28T17:54:49.066Z,15.90
2022-10-28T17:57:15.690Z,15.90
2022-10-28T17:59:42.266Z,15.80
2022-10-28T18:02:10.325Z,16.80
2022-10-28T18:04:37.090Z,15.80
2022-10-28T18:07:03.671Z,15.70
2022-10-28T18:09:31.998Z,15.70
2022-10-28T18:11:59.815Z,15.70
2022-10-28T18:14:27.287Z,15.70
2022-10-28T18:16:53.868Z,15.70
2022-10-28T18:19:20.553Z,15.60
2022-10-28T18:21:47.373Z,15.70
2022-10-28T18:24:14.132Z,15.70
2022-10-28T18:26:40.985Z,15.60
2022-10-28T18:29:10.008Z,15.70
2022-10-28T18:31:37.209Z,15.60
2022-10-28T18:34:04.294Z,15.60
2022-10-28T18:36:34.454Z,15.60
2022-10-28T18:39:02.219Z,15.60
2022-10-28T18:41:29.613Z,15.60
2022-10-28T18:43:57.183Z,15.60
2022-10-28T18:46:23.877Z,15.60
2022-10-28T18:48:51.004Z,15.60
2022-10-28T18:51:17.835Z,15.50
2022-10-28T18:53:46.067Z,15.60
2022-10-28T18:56:13.782Z,15.60
2022-10-28T18:58:41.006Z,15.60
2022-10-28T19:01:09.222Z,15.60
2022-10-28T19:03:35.879Z,15.60
2022-10-28T19:06:03.759Z,15.60
2022-10-28T19:08:30.443Z,15.60
2022-10-28T19:10:57.818Z,15.60
2022-10-28T19:13:24.651Z,15.70
2022-10-28T19:15:51.235Z,15.70
2022-10-28T19:18:19.385Z,15.70
2022-10-28T19:20:46.272Z,15.70
2022-10-28T19:23:12.921Z,15.70
2022-10-28T19:25:39.594Z,15.70
2022-10-28T19:28:06.240Z,15.70
2022-10-28T19:30:34.437Z,15.80
2022-10-28T19:33:01.167Z,16.10
2022-10-28T19:35:27.763Z,16.00
2022-10-28T19:37:54.671Z,15.80
2022-10-28T19:40:21.294Z,15.80
2022-10-28T19:42:48.081Z,16.00
2022-10-28T19:45:14.855Z,16.00
2022-10-28T19:47:41.485Z,16.10
2022-10-28T19:50:08.439Z,16.30
2022-10-28T19:52:35.135Z,16.30
2022-10-28T19:55:01.760Z,16.30
2022-10-28T19:57:28.504Z,16.40
2022-10-28T19:59:55.185Z,16.40
2022-10-28T20:02:21.964Z,16.40
2022-10-28T20:04:53.305Z,16.40
2022-10-28T20:07:20.144Z,16.30
2022-10-28T20:09:46.808Z,16.30
2022-10-28T20:12:13.410Z,16.40
2022-10-28T20:14:39.994Z,16.30
2022-10-28T20:17:07.158Z,16.30
2022-10-28T20:19:33.831Z,16.20
2022-10-28T20:22:00.462Z,16.20
2022-10-28T20:24:27.146Z,16.10
2022-10-28T20:26:53.876Z,16.10
2022-10-28T20:29:20.740Z,16.00
2022-10-28T20:31:47.336Z,15.90
2022-10-28T20:34:13.997Z,15.90
2022-10-28T20:36:41.381Z,15.90
2022-10-28T20:39:11.393Z,15.80
2022-10-28T20:41:38.477Z,15.80
2022-10-28T20:44:05.648Z,15.80
2022-10-28T20:46:32.540Z,15.80
2022-10-28T20:49:00.714Z,15.70
2022-10-28T20:51:28.507Z,15.70
2022-10-28T20:53:55.269Z,15.70
2022-10-28T20:56:26.304Z,15.70
2022-10-28T20:58:53.827Z,15.60
2022-10-28T21:01:21.996Z,15.60
2022-10-28T21:03:49.383Z,15.80
2022-10-28T21:06:17.079Z,15.60
2022-10-28T21:08:44.108Z,15.50
2022-10-28T21:11:12.099Z,15.50
2022-10-28T21:13:39.016Z,15.40
2022-10-28T21:16:06.153Z,15.40
2022-10-28T21:18:32.836Z,15.40
2022-10-28T21:21:00.165Z,15.40
2022-10-28T21:23:27.501Z,15.40
2022-10-28T21:25:54.582Z,15.40
2022-10-28T21:28:21.491Z,15.40
2022-10-28T21:30:48.191Z,15.30
2022-10-28T21:33:15.074Z,15.40
2022-10-28T21:35:41.656Z,15.30
